Ocean Clipper — CY7666 — position and weather

sailwx.info

Track history (hours):
 
Tides and Currents Weather Stations Pressure Air Temp Water Temp Dewpoint Dewpoint Depression Visibility Wind Speed Wind Dir Waves Ship Positions

Ocean Clipper

Last reported at 2018-Feb-22 20:30 UTC. Time now 2018-Feb-22 20:52 UTC.
Position N 50°05' W 125°19'.

Length 27 m; draft 4.6 m.

Type: Tow > 200 m length. MMSI: 316005594.

Date/timePositionNaut miles runAvg speedWind from/ knotsBaromVisibWave heightAir tempDewpointWater temp
2018-Feb-22 20:30N 50°05' W 125°19'0 0.2
2018-Feb-22 20:00N 50°05' W 125°19'0 0.9
2018-Feb-22 19:30N 50°06' W 125°19'2 3.3
2018-Feb-22 19:00N 50°05' W 125°17'510.5
2018-Feb-22 18:30N 50°01' W 125°13'4 7.7
2018-Feb-22 17:59N 49°58' W 125°09'4 8.0
2018-Feb-22 17:30N 49°55' W 125°04'4 7.4
2018-Feb-22 17:00N 49°52' W 124°60'4 7.6
2018-Feb-22 16:30N 49°50' W 124°55'4 7.2
2018-Feb-22 16:00N 49°48' W 124°51'4 7.4
2018-Feb-22 15:29N 49°45' W 124°46'4 7.8
2018-Feb-22 14:58N 49°43' W 124°42'49 8.1
2018-Feb-22 08:53N 49°22' W 123°33'3 7.8
2018-Feb-22 08:27N 49°23' W 123°28'2 5.6
2018-Feb-22 08:00N 49°25' W 123°27'3 6.4
2018-Feb-22 07:30N 49°28' W 123°29'0 0.1
2018-Feb-22 07:00N 49°28' W 123°29'0 0.0
2018-Feb-22 06:29N 49°28' W 123°29'0 0.0
2018-Feb-22 05:59N 49°28' W 123°29'0 0.1
2018-Feb-22 05:30N 49°28' W 123°29'0 0.0
2018-Feb-22 05:00N 49°28' W 123°29'0 0.0
2018-Feb-22 04:30N 49°28' W 123°29'0 0.0
2018-Feb-22 03:59N 49°28' W 123°29'0 0.0
2018-Feb-22 03:29N 49°28' W 123°29'0 0.0
2018-Feb-22 02:56N 49°28' W 123°29'0 0.0
2018-Feb-22 02:30N 49°28' W 123°29'0 0.0
2018-Feb-22 02:00N 49°28' W 123°29'0 0.0
2018-Feb-22 01:30N 49°28' W 123°29'0 0.0
2018-Feb-22 01:00N 49°28' W 123°29'0 0.0
2018-Feb-22 00:30N 49°28' W 123°29'0 0.2
2018-Feb-22 00:00N 49°28' W 123°29'1 2.8
2018-Feb-21 23:30N 49°27' W 123°28'3 6.4
2018-Feb-21 23:00N 49°24' W 123°25'3 6.9
2018-Feb-21 22:30N 49°21' W 123°27'4 6.9
2018-Feb-21 21:59N 49°17' W 123°27'4 6.4
2018-Feb-21 21:26N 49°14' W 123°27'3 6.0
2018-Feb-21 21:00N 49°11' W 123°27'5 6.0
2018-Feb-21 20:09N 49°06' W 123°27'4 5.8
2018-Feb-21 19:30N 49°02' W 123°26'3 6.2
2018-Feb-21 19:00N 49°00' W 123°22'3 5.9
2018-Feb-21 18:30N 48°58' W 123°19'3 6.1
2018-Feb-21 17:59N 48°56' W 123°15'3 6.5
2018-Feb-21 17:28N 48°54' W 123°12'3 6.6
2018-Feb-21 16:57N 48°52' W 123°08'7 4.1
2018-Feb-21 15:16N 48°45' W 123°03'2 7.4
2018-Feb-21 15:00N 48°44' W 123°06'4 7.5
2018-Feb-21 14:30N 48°43' W 123°11'3 6.8
2018-Feb-21 14:00N 48°41' W 123°15'3 6.1
2018-Feb-21 13:30N 48°38' W 123°14'4 7.4
2018-Feb-21 13:00N 48°34' W 123°12'3 6.9
2018-Feb-21 12:30N 48°31' W 123°11'4 7.0
2018-Feb-21 12:00N 48°27' W 123°10'3 6.6
2018-Feb-21 11:30N 48°24' W 123°11'3 6.0
2018-Feb-21 11:00N 48°22' W 123°14'3 5.7
2018-Feb-21 10:30N 48°20' W 123°17'3 5.4
2018-Feb-21 10:00N 48°19' W 123°21'3 5.4
2018-Feb-21 09:30N 48°17' W 123°24'22 4.9
2018-Feb-21 05:07N 48°20' W 123°57'1 5.5
2018-Feb-21 04:56N 48°21' W 123°58'2 5.5
2018-Feb-21 04:30N 48°21' W 124°01'3 6.2
2018-Feb-21 04:00N 48°23' W 124°06'3 6.5
2018-Feb-21 03:30N 48°24' W 124°10'3 6.2
2018-Feb-21 03:00N 48°25' W 124°15'3 6.5
2018-Feb-21 02:30N 48°26' W 124°19'3 6.7
2018-Feb-21 02:00N 48°27' W 124°24'3 6.3
2018-Feb-21 01:30N 48°28' W 124°28'3 6.0
2018-Feb-21 01:00N 48°29' W 124°32'3 6.1
2018-Feb-21 00:30N 48°30' W 124°37'3 6.1
2018-Feb-20 23:59N 48°32' W 124°41'3 5.9
2018-Feb-20 23:30N 48°33' W 124°45'3 6.0
2018-Feb-20 23:00N 48°34' W 124°49'3 6.1
2018-Feb-20 22:30N 48°35' W 124°53'3 6.3
2018-Feb-20 22:00N 48°36' W 124°58'12 5.4
2018-Feb-20 19:45N 48°42' W 125°14'1 5.5
2018-Feb-20 19:29N 48°43' W 125°16'3 5.6
2018-Feb-20 19:00N 48°45' W 125°17'8 6.3
2018-Feb-20 17:48N 48°51' W 125°09'3 7.5
2018-Feb-20 17:26N 48°53' W 125°06'15 6.7
2018-Feb-20 15:15N 49°04' W 124°51'2 6.8
2018-Feb-20 15:00N 49°05' W 124°50'3 6.8
2018-Feb-20 14:30N 49°08' W 124°48'1 1.3
2018-Feb-20 14:00N 49°09' W 124°49'0 0.0
2018-Feb-20 13:30N 49°09' W 124°49'0 0.2
2018-Feb-20 12:55N 49°09' W 124°49'0 0.0
2018-Feb-20 12:30N 49°09' W 124°49'0 0.0
2018-Feb-20 11:59N 49°09' W 124°49'0 0.0
2018-Feb-20 11:30N 49°09' W 124°49'0 0.0
2018-Feb-20 11:00N 49°09' W 124°49'0 0.0
2018-Feb-20 10:30N 49°09' W 124°49'0 0.0
2018-Feb-20 09:59N 49°09' W 124°49'0 0.0
2018-Feb-20 09:28N 49°09' W 124°49'0 0.0
2018-Feb-20 09:00N 49°09' W 124°49'0 0.0
2018-Feb-20 08:29N 49°09' W 124°49'0 0.0
2018-Feb-20 07:59N 49°09' W 124°49'0 0.0
2018-Feb-20 07:30N 49°09' W 124°49'0 0.0
2018-Feb-20 06:59N 49°09' W 124°49'0 0.0
2018-Feb-20 06:28N 49°09' W 124°49'0 0.0
2018-Feb-20 06:00N 49°09' W 124°49'0 0.0
2018-Feb-20 05:29N 49°09' W 124°49'0 0.0
2018-Feb-20 05:00N 49°09' W 124°49'0 0.0
2018-Feb-20 04:30N 49°09' W 124°49'0 0.2
2018-Feb-20 04:01N 49°09' W 124°49'0 0.0
2018-Feb-20 03:30N 49°09' W 124°49'0 0.0
2018-Feb-20 03:00N 49°09' W 124°49'0 0.0
2018-Feb-20 02:29N 49°09' W 124°49'0 0.0
2018-Feb-20 02:00N 49°09' W 124°49'0 0.0
2018-Feb-20 01:31N 49°09' W 124°49'0 0.0
2018-Feb-20 01:00N 49°09' W 124°49'0 0.0
2018-Feb-20 00:30N 49°09' W 124°49'0 0.0
2018-Feb-20 00:00N 49°09' W 124°49'0 0.0
2018-Feb-19 23:30N 49°09' W 124°49'0 0.0
2018-Feb-19 23:00N 49°09' W 124°49'0 0.0
2018-Feb-19 22:30N 49°09' W 124°49'0 0.0
2018-Feb-19 22:01N 49°09' W 124°49'0 0.0
2018-Feb-19 21:30N 49°09' W 124°49'0 0.0
2018-Feb-19 21:00N 49°09' W 124°49'0 0.0
2018-Feb-19 20:30N 49°09' W 124°49'0 0.0
2018-Feb-19 20:00N 49°09' W 124°49'0 0.0
2018-Feb-19 19:30N 49°09' W 124°49'0 0.0
2018-Feb-19 19:00N 49°09' W 124°49'0 0.0
2018-Feb-19 18:30N 49°09' W 124°49'0 0.0
2018-Feb-19 18:00N 49°09' W 124°49'0 0.2
2018-Feb-19 17:30N 49°09' W 124°49'0 0.2
2018-Feb-19 17:01N 49°09' W 124°49'0 0.0
2018-Feb-19 16:31N 49°09' W 124°49'0 0.0
2018-Feb-19 16:00N 49°09' W 124°49'0 0.0
2018-Feb-19 15:31N 49°09' W 124°49'0 0.0
2018-Feb-19 15:01N 49°09' W 124°49'0 0.0
2018-Feb-19 14:29N 49°09' W 124°49'0 0.9
2018-Feb-19 14:01N 49°09' W 124°48'1 2.2
2018-Feb-19 13:30N 49°08' W 124°49'2 3.3
2018-Feb-19 13:00N 49°06' W 124°50'2 3.2
2018-Feb-19 12:27N 49°04' W 124°51'15 2.2
2018-Feb-19 05:23N 48°55' W 125°09'2 2.7
2018-Feb-19 04:34N 48°53' W 125°11'1 2.8
2018-Feb-19 04:17N 48°53' W 125°12'1 2.4
2018-Feb-19 03:48N 48°52' W 125°13'1 2.0
2018-Feb-19 03:28N 48°51' W 125°14'2 4.9
2018-Feb-19 02:58N 48°49' W 125°16'3 6.1
2018-Feb-19 02:30N 48°47' W 125°16'4 6.0
2018-Feb-19 01:51N 48°43' W 125°12'7 6.1
2018-Feb-19 00:46N 48°40' W 125°04'2 5.8
2018-Feb-19 00:22N 48°39' W 125°00'2 6.0
2018-Feb-18 23:59N 48°38' W 124°57'3 6.2
2018-Feb-18 23:30N 48°37' W 124°53'3 6.0
2018-Feb-18 23:00N 48°35' W 124°49'3 5.3
2018-Feb-18 22:30N 48°34' W 124°45'3 6.0
2018-Feb-18 22:00N 48°33' W 124°41'3 6.7
2018-Feb-18 21:30N 48°32' W 124°36'3 6.7
2018-Feb-18 21:00N 48°31' W 124°32'3 6.6
2018-Feb-18 20:30N 48°29' W 124°27'3 6.6
2018-Feb-18 20:00N 48°28' W 124°23'3 6.8
2018-Feb-18 19:30N 48°27' W 124°18'4 7.0
2018-Feb-18 19:00N 48°25' W 124°13'4 7.1
2018-Feb-18 18:30N 48°24' W 124°08'4 7.6
2018-Feb-18 17:57N 48°22' W 124°02'16 8.3
2018-Feb-18 16:00N 48°18' W 123°39'4 7.9
2018-Feb-18 15:29N 48°17' W 123°33'4 7.9
2018-Feb-18 14:59N 48°17' W 123°27'3 6.8
2018-Feb-18 14:29N 48°18' W 123°23'3 6.6
2018-Feb-18 14:00N 48°20' W 123°19'3 5.2
2018-Feb-18 13:30N 48°21' W 123°15'2 4.6
2018-Feb-18 13:00N 48°23' W 123°13'2 3.9
2018-Feb-18 12:30N 48°25' W 123°12'3 6.9
2018-Feb-18 12:00N 48°28' W 123°13'3 6.7
2018-Feb-18 11:30N 48°32' W 123°13'3 5.9
2018-Feb-18 11:00N 48°35' W 123°13'3 6.4
2018-Feb-18 10:30N 48°38' W 123°15'4 7.0
2018-Feb-18 10:00N 48°41' W 123°15'27 5.8
2018-Feb-18 05:20N 49°07' W 123°28'3 8.0
2018-Feb-18 04:59N 49°09' W 123°31'49 3.7
2018-Feb-17 16:01N 49°46' W 124°19'0 0.4
2018-Feb-17 15:55N 49°46' W 124°19'0 0.1
2018-Feb-17 15:30N 49°46' W 124°19'1 1.8
2018-Feb-17 15:01N 49°46' W 124°20'0 0.5
2018-Feb-17 14:30N 49°45' W 124°20'0 0.8
2018-Feb-17 14:00N 49°46' W 124°21'1 1.7
2018-Feb-17 13:31N 49°45' W 124°22'2 3.5
2018-Feb-17 13:00N 49°45' W 124°25'2 3.7
2018-Feb-17 12:31N 49°46' W 124°27'1 1.4
2018-Feb-17 12:00N 49°46' W 124°28'2 3.7
2018-Feb-17 11:30N 49°46' W 124°25'1 2.9
2018-Feb-17 11:01N 49°44' W 124°24'1 1.5
2018-Feb-17 10:30N 49°44' W 124°25'1 1.6
2018-Feb-17 10:00N 49°44' W 124°26'1 1.8
2018-Feb-17 09:31N 49°45' W 124°28'1 2.0
2018-Feb-17 09:00N 49°45' W 124°29'1 2.1
2018-Feb-17 08:30N 49°46' W 124°30'1 2.1
2018-Feb-17 08:00N 49°46' W 124°32'1 2.2
2018-Feb-17 07:31N 49°47' W 124°33'1 2.2
2018-Feb-17 07:00N 49°48' W 124°34'2 4.2
2018-Feb-17 06:31N 49°49' W 124°37'2 4.6
2018-Feb-17 06:01N 49°49' W 124°40'2 4.3
2018-Feb-17 05:31N 49°50' W 124°44'2 4.4
2018-Feb-17 05:01N 49°50' W 124°47'2 4.5
2018-Feb-17 04:30N 49°51' W 124°50'2 4.7
2018-Feb-17 04:00N 49°52' W 124°54'2 4.7
2018-Feb-17 03:30N 49°52' W 124°57'2 4.6
2018-Feb-17 03:00N 49°54' W 125°00'2 4.6
2018-Feb-17 02:30N 49°55' W 125°03'2 3.0
2018-Feb-17 02:00N 49°56' W 125°05'2 3.4
2018-Feb-17 01:30N 49°57' W 125°07'4 8.2
2018-Feb-17 00:59N 49°59' W 125°12'4 8.8
2018-Feb-17 00:31N 50°03' W 125°15'5 9.6
2018-Feb-17 00:00N 50°07' W 125°20'4 7.6
2018-Feb-16 23:30N 50°11' W 125°22'2 3.9
2018-Feb-16 23:00N 50°13' W 125°22'2 3.9
2018-Feb-16 22:30N 50°14' W 125°23'3 5.6
2018-Feb-16 22:00N 50°17' W 125°24'51 5.2
2018-Feb-16 12:01N 50°33' W 126°41'0 7.7
2018-Feb-16 12:00N 50°33' W 126°41'5 5.4
2018-Feb-16 11:03N 50°37' W 126°46'1 4.1
2018-Feb-16 10:46N 50°38' W 126°48'3 6.6
2018-Feb-16 10:22N 50°40' W 126°51'3 6.5
2018-Feb-16 09:54N 50°41' W 126°55'4 6.4
2018-Feb-16 09:21N 50°43' W 127°00'5 6.3
2018-Feb-16 08:30N 50°45' W 127°08'3 5.7
2018-Feb-16 07:59N 50°46' W 127°12'28 5.3
2018-Feb-16 02:48N 51°05' W 127°44'2 4.9
2018-Feb-16 02:28N 51°06' W 127°46'2 4.7
2018-Feb-16 01:59N 51°08' W 127°48'3 4.2
2018-Feb-16 01:22N 51°10' W 127°51'18 5.4
2018-Feb-15 22:01N 51°28' W 127°51'2 6.4
2018-Feb-15 21:45N 51°30' W 127°51'2 6.5
2018-Feb-15 21:30N 51°31' W 127°52'3 6.5
2018-Feb-15 21:00N 51°34' W 127°53'3 6.3
2018-Feb-15 20:30N 51°37' W 127°55'3 6.1
2018-Feb-15 20:00N 51°40' W 127°56'3 6.0
2018-Feb-15 19:30N 51°43' W 127°57'3 5.9
2018-Feb-15 19:00N 51°46' W 127°57'3 6.3
2018-Feb-15 18:30N 51°49' W 127°57'3 6.4
2018-Feb-15 18:00N 51°53' W 127°57'3 6.2
2018-Feb-15 17:30N 51°56' W 127°57'3 6.1
2018-Feb-15 16:59N 51°59' W 127°56'3 6.4
2018-Feb-15 16:30N 52°02' W 127°56'5 5.1
2018-Feb-15 15:27N 52°05' W 128°04'3 5.9
2018-Feb-15 14:59N 52°06' W 128°08'10 4.6
2018-Feb-15 12:44N 52°16' W 128°14'2 6.4
2018-Feb-15 12:29N 52°17' W 128°14'4 7.0
2018-Feb-15 11:55N 52°21' W 128°11'3 7.1
2018-Feb-15 11:30N 52°24' W 128°09'1 0.1
2018-Feb-15 01:31N 52°24' W 128°09'0 7.7
2018-Feb-15 01:30N 52°24' W 128°09'27 6.0
2018-Feb-14 20:58N 51°58' W 127°56'4 8.1
2018-Feb-14 20:26N 51°54' W 127°56'3 8.1
2018-Feb-14 20:00N 51°51' W 127°56'4 8.2
2018-Feb-14 19:30N 51°46' W 127°55'4 7.8
2018-Feb-14 19:00N 51°43' W 127°55'4 8.2
2018-Feb-14 18:30N 51°39' W 127°54'4 8.2
2018-Feb-14 18:00N 51°35' W 127°53'4 8.3
2018-Feb-14 17:30N 51°30' W 127°51'11 7.6
2018-Feb-14 16:08N 51°20' W 127°53'7 7.4
2018-Feb-14 15:09N 51°13' W 127°51'2 7.8
2018-Feb-14 14:51N 51°11' W 127°51'3 7.0
2018-Feb-14 14:28N 51°08' W 127°49'3 6.8
2018-Feb-14 14:00N 51°06' W 127°45'3 6.8
2018-Feb-14 13:30N 51°04' W 127°41'3 7.0
2018-Feb-14 13:00N 51°01' W 127°37'4 7.3
2018-Feb-14 12:30N 50°59' W 127°33'4 7.5
2018-Feb-14 12:00N 50°57' W 127°28'4 8.3
2018-Feb-14 11:30N 50°54' W 127°23'4 8.5
2018-Feb-14 11:00N 50°52' W 127°17'4 8.6
2018-Feb-14 10:29N 50°50' W 127°11'15 7.7
2018-Feb-14 08:31N 50°41' W 126°52'3 7.1
2018-Feb-14 08:09N 50°39' W 126°49'1 7.3
2018-Feb-14 07:59N 50°38' W 126°47'5 7.4
2018-Feb-14 07:17N 50°34' W 126°42'7 6.5
2018-Feb-14 06:11N 50°30' W 126°32'43 9.3
2018-Feb-14 01:32N 50°20' W 125°26'0 8.4
2018-Feb-14 01:30N 50°20' W 125°26'5 9.3
2018-Feb-14 01:00N 50°16' W 125°24'4 9.0
2018-Feb-14 00:30N 50°12' W 125°22'4 8.4
2018-Feb-14 00:00N 50°07' W 125°21'2 4.6
2018-Feb-13 23:30N 50°05' W 125°19'0 0.1
2018-Feb-13 23:00N 50°05' W 125°19'0 0.0
2018-Feb-13 22:30N 50°06' W 125°19'0 0.0
2018-Feb-13 22:00N 50°05' W 125°19'0 0.0
2018-Feb-13 21:30N 50°05' W 125°19'0 0.0
2018-Feb-13 21:00N 50°06' W 125°19'0 0.0
2018-Feb-13 20:30N 50°05' W 125°19'0 0.0
2018-Feb-13 20:00N 50°05' W 125°19'0 0.0
2018-Feb-13 19:30N 50°06' W 125°19'0 0.0
2018-Feb-13 19:00N 50°05' W 125°19'0 0.0
2018-Feb-13 18:30N 50°05' W 125°19'0 0.0
2018-Feb-13 18:00N 50°05' W 125°19'0 0.0
2018-Feb-13 17:30N 50°05' W 125°19'0 0.0
2018-Feb-13 17:00N 50°05' W 125°19'0 0.0
2018-Feb-13 16:30N 50°06' W 125°19'0 0.0
2018-Feb-13 16:00N 50°05' W 125°19'0 0.0
2018-Feb-13 15:30N 50°05' W 125°19'0 0.2
2018-Feb-13 15:00N 50°05' W 125°19'0 0.2
2018-Feb-13 14:30N 50°06' W 125°19'1 2.1
2018-Feb-13 14:00N 50°05' W 125°17'4 7.9
2018-Feb-13 13:30N 50°02' W 125°14'4 7.4
2018-Feb-13 13:00N 49°59' W 125°11'2 4.0
2018-Feb-13 12:28N 49°57' W 125°09'3 5.1
2018-Feb-13 11:57N 49°56' W 125°05'3 5.6
2018-Feb-13 11:29N 49°54' W 125°02'3 5.9
2018-Feb-13 10:59N 49°52' W 124°59'4 6.5
2018-Feb-13 10:22N 49°49' W 124°54'2 6.4
2018-Feb-13 09:59N 49°48' W 124°52'3 6.3
2018-Feb-13 09:30N 49°45' W 124°48'3 6.5
2018-Feb-13 09:00N 49°43' W 124°45'3 6.4
2018-Feb-13 08:30N 49°40' W 124°42'3 6.2
2018-Feb-13 08:00N 49°38' W 124°39'52 5.9
2018-Feb-12 23:05N 48°60' W 123°44'1 8.1
2018-Feb-12 22:59N 48°59' W 123°45'  
Track history (hours):
 
Tides and Currents Weather Stations Pressure Air Temp Water Temp Dewpoint Dewpoint Depression Visibility Wind Speed Wind Dir Waves Ship Positions

Ocean Clipper

Last reported at 2018-Feb-22 20:30 UTC. Time now 2018-Feb-22 20:52 UTC.
Position N 50°05' W 125°19'.

Length 27 m; draft 4.6 m.

Type: Tow > 200 m length. MMSI: 316005594.

Date/timePositionNaut miles runAvg speedWind from/ knotsBaromVisibWave heightAir tempDewpointWater temp
2018-Feb-22 20:30N 50°05' W 125°19'0 0.2
2018-Feb-22 20:00N 50°05' W 125°19'0 0.9
2018-Feb-22 19:30N 50°06' W 125°19'2 3.3
2018-Feb-22 19:00N 50°05' W 125°17'510.5
2018-Feb-22 18:30N 50°01' W 125°13'4 7.7
2018-Feb-22 17:59N 49°58' W 125°09'4 8.0
2018-Feb-22 17:30N 49°55' W 125°04'4 7.4
2018-Feb-22 17:00N 49°52' W 124°60'4 7.6
2018-Feb-22 16:30N 49°50' W 124°55'4 7.2
2018-Feb-22 16:00N 49°48' W 124°51'4 7.4
2018-Feb-22 15:29N 49°45' W 124°46'4 7.8
2018-Feb-22 14:58N 49°43' W 124°42'49 8.1
2018-Feb-22 08:53N 49°22' W 123°33'3 7.8
2018-Feb-22 08:27N 49°23' W 123°28'2 5.6
2018-Feb-22 08:00N 49°25' W 123°27'3 6.4
2018-Feb-22 07:30N 49°28' W 123°29'0 0.1
2018-Feb-22 07:00N 49°28' W 123°29'0 0.0
2018-Feb-22 06:29N 49°28' W 123°29'0 0.0
2018-Feb-22 05:59N 49°28' W 123°29'0 0.1
2018-Feb-22 05:30N 49°28' W 123°29'0 0.0
2018-Feb-22 05:00N 49°28' W 123°29'0 0.0
2018-Feb-22 04:30N 49°28' W 123°29'0 0.0
2018-Feb-22 03:59N 49°28' W 123°29'0 0.0
2018-Feb-22 03:29N 49°28' W 123°29'0 0.0
2018-Feb-22 02:56N 49°28' W 123°29'0 0.0
2018-Feb-22 02:30N 49°28' W 123°29'0 0.0
2018-Feb-22 02:00N 49°28' W 123°29'0 0.0
2018-Feb-22 01:30N 49°28' W 123°29'0 0.0
2018-Feb-22 01:00N 49°28' W 123°29'0 0.0
2018-Feb-22 00:30N 49°28' W 123°29'0 0.2
2018-Feb-22 00:00N 49°28' W 123°29'1 2.8
2018-Feb-21 23:30N 49°27' W 123°28'3 6.4
2018-Feb-21 23:00N 49°24' W 123°25'3 6.9
2018-Feb-21 22:30N 49°21' W 123°27'4 6.9
2018-Feb-21 21:59N 49°17' W 123°27'4 6.4
2018-Feb-21 21:26N 49°14' W 123°27'3 6.0
2018-Feb-21 21:00N 49°11' W 123°27'5 6.0
2018-Feb-21 20:09N 49°06' W 123°27'4 5.8
2018-Feb-21 19:30N 49°02' W 123°26'3 6.2
2018-Feb-21 19:00N 49°00' W 123°22'3 5.9
2018-Feb-21 18:30N 48°58' W 123°19'3 6.1
2018-Feb-21 17:59N 48°56' W 123°15'3 6.5
2018-Feb-21 17:28N 48°54' W 123°12'3 6.6
2018-Feb-21 16:57N 48°52' W 123°08'7 4.1
2018-Feb-21 15:16N 48°45' W 123°03'2 7.4
2018-Feb-21 15:00N 48°44' W 123°06'4 7.5
2018-Feb-21 14:30N 48°43' W 123°11'3 6.8
2018-Feb-21 14:00N 48°41' W 123°15'3 6.1
2018-Feb-21 13:30N 48°38' W 123°14'4 7.4
2018-Feb-21 13:00N 48°34' W 123°12'3 6.9
2018-Feb-21 12:30N 48°31' W 123°11'4 7.0
2018-Feb-21 12:00N 48°27' W 123°10'3 6.6
2018-Feb-21 11:30N 48°24' W 123°11'3 6.0
2018-Feb-21 11:00N 48°22' W 123°14'3 5.7
2018-Feb-21 10:30N 48°20' W 123°17'3 5.4
2018-Feb-21 10:00N 48°19' W 123°21'3 5.4
2018-Feb-21 09:30N 48°17' W 123°24'22 4.9
2018-Feb-21 05:07N 48°20' W 123°57'1 5.5
2018-Feb-21 04:56N 48°21' W 123°58'2 5.5
2018-Feb-21 04:30N 48°21' W 124°01'3 6.2
2018-Feb-21 04:00N 48°23' W 124°06'3 6.5
2018-Feb-21 03:30N 48°24' W 124°10'3 6.2
2018-Feb-21 03:00N 48°25' W 124°15'3 6.5
2018-Feb-21 02:30N 48°26' W 124°19'3 6.7
2018-Feb-21 02:00N 48°27' W 124°24'3 6.3
2018-Feb-21 01:30N 48°28' W 124°28'3 6.0
2018-Feb-21 01:00N 48°29' W 124°32'3 6.1
2018-Feb-21 00:30N 48°30' W 124°37'3 6.1
2018-Feb-20 23:59N 48°32' W 124°41'3 5.9
2018-Feb-20 23:30N 48°33' W 124°45'3 6.0
2018-Feb-20 23:00N 48°34' W 124°49'3 6.1
2018-Feb-20 22:30N 48°35' W 124°53'3 6.3
2018-Feb-20 22:00N 48°36' W 124°58'12 5.4
2018-Feb-20 19:45N 48°42' W 125°14'1 5.5
2018-Feb-20 19:29N 48°43' W 125°16'3 5.6
2018-Feb-20 19:00N 48°45' W 125°17'8 6.3
2018-Feb-20 17:48N 48°51' W 125°09'3 7.5
2018-Feb-20 17:26N 48°53' W 125°06'15 6.7
2018-Feb-20 15:15N 49°04' W 124°51'2 6.8
2018-Feb-20 15:00N 49°05' W 124°50'3 6.8
2018-Feb-20 14:30N 49°08' W 124°48'1 1.3
2018-Feb-20 14:00N 49°09' W 124°49'0 0.0
2018-Feb-20 13:30N 49°09' W 124°49'0 0.2
2018-Feb-20 12:55N 49°09' W 124°49'0 0.0
2018-Feb-20 12:30N 49°09' W 124°49'0 0.0
2018-Feb-20 11:59N 49°09' W 124°49'0 0.0
2018-Feb-20 11:30N 49°09' W 124°49'0 0.0
2018-Feb-20 11:00N 49°09' W 124°49'0 0.0
2018-Feb-20 10:30N 49°09' W 124°49'0 0.0
2018-Feb-20 09:59N 49°09' W 124°49'0 0.0
2018-Feb-20 09:28N 49°09' W 124°49'0 0.0
2018-Feb-20 09:00N 49°09' W 124°49'0 0.0
2018-Feb-20 08:29N 49°09' W 124°49'0 0.0
2018-Feb-20 07:59N 49°09' W 124°49'0 0.0
2018-Feb-20 07:30N 49°09' W 124°49'0 0.0
2018-Feb-20 06:59N 49°09' W 124°49'0 0.0
2018-Feb-20 06:28N 49°09' W 124°49'0 0.0
2018-Feb-20 06:00N 49°09' W 124°49'0 0.0
2018-Feb-20 05:29N 49°09' W 124°49'0 0.0
2018-Feb-20 05:00N 49°09' W 124°49'0 0.0
2018-Feb-20 04:30N 49°09' W 124°49'0 0.2
2018-Feb-20 04:01N 49°09' W 124°49'0 0.0
2018-Feb-20 03:30N 49°09' W 124°49'0 0.0
2018-Feb-20 03:00N 49°09' W 124°49'0 0.0
2018-Feb-20 02:29N 49°09' W 124°49'0 0.0
2018-Feb-20 02:00N 49°09' W 124°49'0 0.0
2018-Feb-20 01:31N 49°09' W 124°49'0 0.0
2018-Feb-20 01:00N 49°09' W 124°49'0 0.0
2018-Feb-20 00:30N 49°09' W 124°49'0 0.0
2018-Feb-20 00:00N 49°09' W 124°49'0 0.0
2018-Feb-19 23:30N 49°09' W 124°49'0 0.0
2018-Feb-19 23:00N 49°09' W 124°49'0 0.0
2018-Feb-19 22:30N 49°09' W 124°49'0 0.0
2018-Feb-19 22:01N 49°09' W 124°49'0 0.0
2018-Feb-19 21:30N 49°09' W 124°49'0 0.0
2018-Feb-19 21:00N 49°09' W 124°49'0 0.0
2018-Feb-19 20:30N 49°09' W 124°49'0 0.0
2018-Feb-19 20:00N 49°09' W 124°49'0 0.0
2018-Feb-19 19:30N 49°09' W 124°49'0 0.0
2018-Feb-19 19:00N 49°09' W 124°49'0 0.0
2018-Feb-19 18:30N 49°09' W 124°49'0 0.0
2018-Feb-19 18:00N 49°09' W 124°49'0 0.2
2018-Feb-19 17:30N 49°09' W 124°49'0 0.2
2018-Feb-19 17:01N 49°09' W 124°49'0 0.0
2018-Feb-19 16:31N 49°09' W 124°49'0 0.0
2018-Feb-19 16:00N 49°09' W 124°49'0 0.0
2018-Feb-19 15:31N 49°09' W 124°49'0 0.0
2018-Feb-19 15:01N 49°09' W 124°49'0 0.0
2018-Feb-19 14:29N 49°09' W 124°49'0 0.9
2018-Feb-19 14:01N 49°09' W 124°48'1 2.2
2018-Feb-19 13:30N 49°08' W 124°49'2 3.3
2018-Feb-19 13:00N 49°06' W 124°50'2 3.2
2018-Feb-19 12:27N 49°04' W 124°51'15 2.2
2018-Feb-19 05:23N 48°55' W 125°09'2 2.7
2018-Feb-19 04:34N 48°53' W 125°11'1 2.8
2018-Feb-19 04:17N 48°53' W 125°12'1 2.4
2018-Feb-19 03:48N 48°52' W 125°13'1 2.0
2018-Feb-19 03:28N 48°51' W 125°14'2 4.9
2018-Feb-19 02:58N 48°49' W 125°16'3 6.1
2018-Feb-19 02:30N 48°47' W 125°16'4 6.0
2018-Feb-19 01:51N 48°43' W 125°12'7 6.1
2018-Feb-19 00:46N 48°40' W 125°04'2 5.8
2018-Feb-19 00:22N 48°39' W 125°00'2 6.0
2018-Feb-18 23:59N 48°38' W 124°57'3 6.2
2018-Feb-18 23:30N 48°37' W 124°53'3 6.0
2018-Feb-18 23:00N 48°35' W 124°49'3 5.3
2018-Feb-18 22:30N 48°34' W 124°45'3 6.0
2018-Feb-18 22:00N 48°33' W 124°41'3 6.7
2018-Feb-18 21:30N 48°32' W 124°36'3 6.7
2018-Feb-18 21:00N 48°31' W 124°32'3 6.6
2018-Feb-18 20:30N 48°29' W 124°27'3 6.6
2018-Feb-18 20:00N 48°28' W 124°23'3 6.8
2018-Feb-18 19:30N 48°27' W 124°18'4 7.0
2018-Feb-18 19:00N 48°25' W 124°13'4 7.1
2018-Feb-18 18:30N 48°24' W 124°08'4 7.6
2018-Feb-18 17:57N 48°22' W 124°02'16 8.3
2018-Feb-18 16:00N 48°18' W 123°39'4 7.9
2018-Feb-18 15:29N 48°17' W 123°33'4 7.9
2018-Feb-18 14:59N 48°17' W 123°27'3 6.8
2018-Feb-18 14:29N 48°18' W 123°23'3 6.6
2018-Feb-18 14:00N 48°20' W 123°19'3 5.2
2018-Feb-18 13:30N 48°21' W 123°15'2 4.6
2018-Feb-18 13:00N 48°23' W 123°13'2 3.9
2018-Feb-18 12:30N 48°25' W 123°12'3 6.9
2018-Feb-18 12:00N 48°28' W 123°13'3 6.7
2018-Feb-18 11:30N 48°32' W 123°13'3 5.9
2018-Feb-18 11:00N 48°35' W 123°13'3 6.4
2018-Feb-18 10:30N 48°38' W 123°15'4 7.0
2018-Feb-18 10:00N 48°41' W 123°15'27 5.8
2018-Feb-18 05:20N 49°07' W 123°28'3 8.0
2018-Feb-18 04:59N 49°09' W 123°31'49 3.7
2018-Feb-17 16:01N 49°46' W 124°19'0 0.4
2018-Feb-17 15:55N 49°46' W 124°19'0 0.1
2018-Feb-17 15:30N 49°46' W 124°19'1 1.8
2018-Feb-17 15:01N 49°46' W 124°20'0 0.5
2018-Feb-17 14:30N 49°45' W 124°20'0 0.8
2018-Feb-17 14:00N 49°46' W 124°21'1 1.7
2018-Feb-17 13:31N 49°45' W 124°22'2 3.5
2018-Feb-17 13:00N 49°45' W 124°25'2 3.7
2018-Feb-17 12:31N 49°46' W 124°27'1 1.4
2018-Feb-17 12:00N 49°46' W 124°28'2 3.7
2018-Feb-17 11:30N 49°46' W 124°25'1 2.9
2018-Feb-17 11:01N 49°44' W 124°24'1 1.5
2018-Feb-17 10:30N 49°44' W 124°25'1 1.6
2018-Feb-17 10:00N 49°44' W 124°26'1 1.8
2018-Feb-17 09:31N 49°45' W 124°28'1 2.0
2018-Feb-17 09:00N 49°45' W 124°29'1 2.1
2018-Feb-17 08:30N 49°46' W 124°30'1 2.1
2018-Feb-17 08:00N 49°46' W 124°32'1 2.2
2018-Feb-17 07:31N 49°47' W 124°33'1 2.2
2018-Feb-17 07:00N 49°48' W 124°34'2 4.2
2018-Feb-17 06:31N 49°49' W 124°37'2 4.6
2018-Feb-17 06:01N 49°49' W 124°40'2 4.3
2018-Feb-17 05:31N 49°50' W 124°44'2 4.4
2018-Feb-17 05:01N 49°50' W 124°47'2 4.5
2018-Feb-17 04:30N 49°51' W 124°50'2 4.7
2018-Feb-17 04:00N 49°52' W 124°54'2 4.7
2018-Feb-17 03:30N 49°52' W 124°57'2 4.6
2018-Feb-17 03:00N 49°54' W 125°00'2 4.6
2018-Feb-17 02:30N 49°55' W 125°03'2 3.0
2018-Feb-17 02:00N 49°56' W 125°05'2 3.4
2018-Feb-17 01:30N 49°57' W 125°07'4 8.2
2018-Feb-17 00:59N 49°59' W 125°12'4 8.8
2018-Feb-17 00:31N 50°03' W 125°15'5 9.6
2018-Feb-17 00:00N 50°07' W 125°20'4 7.6
2018-Feb-16 23:30N 50°11' W 125°22'2 3.9
2018-Feb-16 23:00N 50°13' W 125°22'2 3.9
2018-Feb-16 22:30N 50°14' W 125°23'3 5.6
2018-Feb-16 22:00N 50°17' W 125°24'51 5.2
2018-Feb-16 12:01N 50°33' W 126°41'0 7.7
2018-Feb-16 12:00N 50°33' W 126°41'5 5.4
2018-Feb-16 11:03N 50°37' W 126°46'1 4.1
2018-Feb-16 10:46N 50°38' W 126°48'3 6.6
2018-Feb-16 10:22N 50°40' W 126°51'3 6.5
2018-Feb-16 09:54N 50°41' W 126°55'4 6.4
2018-Feb-16 09:21N 50°43' W 127°00'5 6.3
2018-Feb-16 08:30N 50°45' W 127°08'3 5.7
2018-Feb-16 07:59N 50°46' W 127°12'28 5.3
2018-Feb-16 02:48N 51°05' W 127°44'2 4.9
2018-Feb-16 02:28N 51°06' W 127°46'2 4.7
2018-Feb-16 01:59N 51°08' W 127°48'3 4.2
2018-Feb-16 01:22N 51°10' W 127°51'18 5.4
2018-Feb-15 22:01N 51°28' W 127°51'2 6.4
2018-Feb-15 21:45N 51°30' W 127°51'2 6.5
2018-Feb-15 21:30N 51°31' W 127°52'3 6.5
2018-Feb-15 21:00N 51°34' W 127°53'3 6.3
2018-Feb-15 20:30N 51°37' W 127°55'3 6.1
2018-Feb-15 20:00N 51°40' W 127°56'3 6.0
2018-Feb-15 19:30N 51°43' W 127°57'3 5.9
2018-Feb-15 19:00N 51°46' W 127°57'3 6.3
2018-Feb-15 18:30N 51°49' W 127°57'3 6.4
2018-Feb-15 18:00N 51°53' W 127°57'3 6.2
2018-Feb-15 17:30N 51°56' W 127°57'3 6.1
2018-Feb-15 16:59N 51°59' W 127°56'3 6.4
2018-Feb-15 16:30N 52°02' W 127°56'5 5.1
2018-Feb-15 15:27N 52°05' W 128°04'3 5.9
2018-Feb-15 14:59N 52°06' W 128°08'10 4.6
2018-Feb-15 12:44N 52°16' W 128°14'2 6.4
2018-Feb-15 12:29N 52°17' W 128°14'4 7.0
2018-Feb-15 11:55N 52°21' W 128°11'3 7.1
2018-Feb-15 11:30N 52°24' W 128°09'1 0.1
2018-Feb-15 01:31N 52°24' W 128°09'0 7.7
2018-Feb-15 01:30N 52°24' W 128°09'27 6.0
2018-Feb-14 20:58N 51°58' W 127°56'4 8.1
2018-Feb-14 20:26N 51°54' W 127°56'3 8.1
2018-Feb-14 20:00N 51°51' W 127°56'4 8.2
2018-Feb-14 19:30N 51°46' W 127°55'4 7.8
2018-Feb-14 19:00N 51°43' W 127°55'4 8.2
2018-Feb-14 18:30N 51°39' W 127°54'4 8.2
2018-Feb-14 18:00N 51°35' W 127°53'4 8.3
2018-Feb-14 17:30N 51°30' W 127°51'11 7.6
2018-Feb-14 16:08N 51°20' W 127°53'7 7.4
2018-Feb-14 15:09N 51°13' W 127°51'2 7.8
2018-Feb-14 14:51N 51°11' W 127°51'3 7.0
2018-Feb-14 14:28N 51°08' W 127°49'3 6.8
2018-Feb-14 14:00N 51°06' W 127°45'3 6.8
2018-Feb-14 13:30N 51°04' W 127°41'3 7.0
2018-Feb-14 13:00N 51°01' W 127°37'4 7.3
2018-Feb-14 12:30N 50°59' W 127°33'4 7.5
2018-Feb-14 12:00N 50°57' W 127°28'4 8.3
2018-Feb-14 11:30N 50°54' W 127°23'4 8.5
2018-Feb-14 11:00N 50°52' W 127°17'4 8.6
2018-Feb-14 10:29N 50°50' W 127°11'15 7.7
2018-Feb-14 08:31N 50°41' W 126°52'3 7.1
2018-Feb-14 08:09N 50°39' W 126°49'1 7.3
2018-Feb-14 07:59N 50°38' W 126°47'5 7.4
2018-Feb-14 07:17N 50°34' W 126°42'7 6.5
2018-Feb-14 06:11N 50°30' W 126°32'43 9.3
2018-Feb-14 01:32N 50°20' W 125°26'0 8.4
2018-Feb-14 01:30N 50°20' W 125°26'5 9.3
2018-Feb-14 01:00N 50°16' W 125°24'4 9.0
2018-Feb-14 00:30N 50°12' W 125°22'4 8.4
2018-Feb-14 00:00N 50°07' W 125°21'2 4.6
2018-Feb-13 23:30N 50°05' W 125°19'0 0.1
2018-Feb-13 23:00N 50°05' W 125°19'0 0.0
2018-Feb-13 22:30N 50°06' W 125°19'0 0.0
2018-Feb-13 22:00N 50°05' W 125°19'0 0.0
2018-Feb-13 21:30N 50°05' W 125°19'0 0.0
2018-Feb-13 21:00N 50°06' W 125°19'0 0.0
2018-Feb-13 20:30N 50°05' W 125°19'0 0.0
2018-Feb-13 20:00N 50°05' W 125°19'0 0.0
2018-Feb-13 19:30N 50°06' W 125°19'0 0.0
2018-Feb-13 19:00N 50°05' W 125°19'0 0.0
2018-Feb-13 18:30N 50°05' W 125°19'0 0.0
2018-Feb-13 18:00N 50°05' W 125°19'0 0.0
2018-Feb-13 17:30N 50°05' W 125°19'0 0.0
2018-Feb-13 17:00N 50°05' W 125°19'0 0.0
2018-Feb-13 16:30N 50°06' W 125°19'0 0.0
2018-Feb-13 16:00N 50°05' W 125°19'0 0.0
2018-Feb-13 15:30N 50°05' W 125°19'0 0.2
2018-Feb-13 15:00N 50°05' W 125°19'0 0.2
2018-Feb-13 14:30N 50°06' W 125°19'1 2.1
2018-Feb-13 14:00N 50°05' W 125°17'4 7.9
2018-Feb-13 13:30N 50°02' W 125°14'4 7.4
2018-Feb-13 13:00N 49°59' W 125°11'2 4.0
2018-Feb-13 12:28N 49°57' W 125°09'3 5.1
2018-Feb-13 11:57N 49°56' W 125°05'3 5.6
2018-Feb-13 11:29N 49°54' W 125°02'3 5.9
2018-Feb-13 10:59N 49°52' W 124°59'4 6.5
2018-Feb-13 10:22N 49°49' W 124°54'2 6.4
2018-Feb-13 09:59N 49°48' W 124°52'3 6.3
2018-Feb-13 09:30N 49°45' W 124°48'3 6.5
2018-Feb-13 09:00N 49°43' W 124°45'3 6.4
2018-Feb-13 08:30N 49°40' W 124°42'3 6.2
2018-Feb-13 08:00N 49°38' W 124°39'52 5.9
2018-Feb-12 23:05N 48°60' W 123°44'1 8.1
2018-Feb-12 22:59N 48°59' W 123°45'  

Dump ship's entire track history